LFHP 301030Z AUTO 33005KT 290V020 CAVOK 20/07 Q1017

ElémentsDécodage
LFHP Station météo située sur l'aérodrome de LE-PUY loudes
301030Z émis le 30 du mois à 10h30 UTC
AUTO Bulletin édité par un automate
33005KT vent du 330°, 05 noeuds
290V020 vent de direction variable entre 290° et 020°
CAVOK Ceiling And Visibility OK
- Visibilité de 10 Km ou plus
- Pas de nuage au-dessous de 1500m ou au-dessous de l'altitude minimale du secteur la plus élevée (si>1500m) et absence de CB
- pas de temps présent significatif
20/07 température 20°C, point de rosée 07°C
 soit une humidité relative de 43%
Q1017 la pression au niveau de la mer (QNH) est de 1017 hPa